26 Eylül 2008, Cuma 13:44:08

ATATÜRK HAVALİMANI'NDA FIRTINALI GÜN

Şiddetli esen rüzgar nedeniyle Atatürk Havalimanı’nı kullanan uçaklar zaman zaman sıkıntılar yaşıyor. Havalimanı meteorolojisine fırtına uyarısı yapılırken, rüzgarın şu anda fırtına seviyesinin 13 nat(knot) üzerinde yani 43 nat şiddetinde estiği belirtildi.
  • sabah pas 9.40 civarında pas geçen ucagı gordum..az kaldı kanadı kaptırıyordu..Son anda pas geçtiler..geçmiş olsun..
  • LTBA 262020Z 33022G34KT 9999 -SHRA FEW025CB BKN030 BKN090 16/12 Q1013 BECMG 5000 -TSRA ------- Istanbul / Ataturk, Turkey (LTBA) 40-58N 028-49E 37M Sep 26, 2008 - 04:20 PM EDT / 2008.09.26 2020 UTC Wind: from the NNW (330 degrees) at 25 MPH (22 KT) gusting to 39 MPH (34 KT):0 Visibility: greater than 7 mile(s):0 Sky conditions: mostly cloudy Weather: light rain showers; Cumulonimbus clouds observed Temperature: 60 F (16 C) Dew Point: 53 F (12 C) Relative Humidity: 77% Pressure (altimeter): 29.91 in. Hg (1013 hPa) ob: LTBA 262020Z 33022G34KT 9999 -SHRA FEW025CB BKN030 BKN090 16/12 Q1013 BECMG 5000 -TSRA cycle: 20
  • Acaba 43 km/saat mi demek istediniz?
  • LTBA 261450Z 32016KT 9999 FEW025CB SCT035 BKN100 19/13 Q1011 NOSIG= LTBA 260940Z 261812 35016KT 9999 -SHRA SCT035 BKN100 PROB40 1822 35020G32KT 4000 -TSRA FEW020CB BKN025 PROB40 0206 35020G30KT 4000 -TSRA FEW020CB BKN025=


Atatürk Havalimanı hava ulaşımı şiddetli esen rüzgardan olumsuz etkileniyor.  Şiddetini arttırarak devam eden rüzgar, uçakların iniş kalkışlarında zaman zaman zor anlar yaşanıyor. Bazı uçaklar piste iniş yapamayıp pas geçmek zorunda kalıyor.

Bu arada, Atatürk Havalimanı Meteoroloji Müdürlüğü’ne fırtına uyarısı yapıldı. Normal hava koşullarında 12 nat şiddetinde esen rüzgar, 30 nat’ın üzerine çıkarsa fırtına kategorisine giriyor. Atatürk Havalimanı’nda da şu anda rüzgar 43 nat şiddetinde esiyor.

Pilotlar, en fazla 50-55 nat şiddetindeki rüzgara kadar iniş kalkış yapabiliyor.

ATATÜRK HAVALİMANI'NDA FIRTINALI GÜN

Facebook Yorum

Yorumlar Tüm Yorumlar (5)

taksi ~ 8 yıl önce
sabah pas 9.40 civarında pas geçen ucagı gordum..az kaldı kanadı kaptırıyordu..Son anda pas geçtiler..geçmiş olsun..

Yanıtla

Kalan karakter 1000
Fatih KOZ ~ 8 yıl önce
LTBA 262020Z 33022G34KT 9999 -SHRA FEW025CB BKN030 BKN090 16/12 Q1013 BECMG 5000 -TSRA ------- Istanbul / Ataturk, Turkey (LTBA) 40-58N 028-49E 37M Sep 26, 2008 - 04:20 PM EDT / 2008.09.26 2020 UTC Wind: from the NNW (330 degrees) at 25 MPH (22 KT) gusting to 39 MPH (34 KT):0 Visibility: greater than 7 mile(s):0 Sky conditions: mostly cloudy Weather: light rain showers; Cumulonimbus clouds observed Temperature: 60 F (16 C) Dew Point: 53 F (12 C) Relative Humidity: 77% Pressure (altimeter): 29.91 in. Hg (1013 hPa) ob: LTBA 262020Z 33022G34KT 9999 -SHRA FEW025CB BKN030 BKN090 16/12 Q1013 BECMG 5000 -TSRA cycle: 20

Yanıtla

Kalan karakter 1000
Knot ~ 8 yıl önce
Acaba 43 km/saat mi demek istediniz?

Yanıtla

Kalan karakter 1000
LTBA ~ 8 yıl önce
LTBA 261450Z 32016KT 9999 FEW025CB SCT035 BKN100 19/13 Q1011 NOSIG= LTBA 260940Z 261812 35016KT 9999 -SHRA SCT035 BKN100 PROB40 1822 35020G32KT 4000 -TSRA FEW020CB BKN025 PROB40 0206 35020G30KT 4000 -TSRA FEW020CB BKN025=

Yanıtla

Kalan karakter 1000

Yorum Gönder

Kalan karakter 1000